Time;durP1;ratioP1;P1;durP2;ratioP2;P2;SDS_P1;SDS_P2;PMS_P1;PMS_P2;Temp;Humidity;BMP_temperature;BMP_pressure;BME280_temperature;BME280_humidity;BME280_pressure;Samples;Min_cycle;Max_cycle;Signal;HPM_P1;HPM_P2
2023/01/04 00:02:18;;;;;;;6.80;5.60;;;;;;;;;;5076376;28;20275;-62
2023/01/04 00:04:45;;;;;;;5.95;5.40;;;;;;;;;;5076208;28;20486;-62
2023/01/04 00:07:12;;;;;;;5.97;5.13;;;;;;;;;;5076004;28;20220;-62
2023/01/04 00:09:39;;;;;;;6.50;5.90;;;;;;;;;;5076041;28;20198;-62
2023/01/04 00:12:07;;;;;;;6.80;5.10;;;;;;;;;;5075944;28;20629;-62
2023/01/04 00:14:34;;;;;;;5.82;5.20;;;;;;;;;;5075844;28;21000;-62
2023/01/04 00:17:01;;;;;;;5.50;4.72;;;;;;;;;;5076250;28;20232;-62
2023/01/04 00:19:28;;;;;;;5.55;5.10;;;;;;;;;;5076013;28;20188;-62
2023/01/04 00:21:55;;;;;;;5.47;4.50;;;;;;;;;;5075828;28;20191;-62
2023/01/04 00:24:22;;;;;;;6.95;5.65;;;;;;;;;;5075764;28;20615;-62
2023/01/04 00:26:49;;;;;;;5.32;4.88;;;;;;;;;;5075484;28;20212;-62
2023/01/04 00:29:17;;;;;;;5.70;5.20;;;;;;;;;;5075781;28;20211;-62
2023/01/04 00:31:44;;;;;;;7.60;4.97;;;;;;;;;;5075643;28;20198;-62
2023/01/04 00:34:13;;;;;;;6.22;5.40;;;;;;;;;;5074247;28;20597;-62
2023/01/04 00:36:40;;;;;;;5.50;5.00;;;;;;;;;;5075504;28;20209;-62
2023/01/04 00:39:08;;;;;;;5.25;4.85;;;;;;;;;;5075599;28;20202;-62
2023/01/04 00:41:36;;;;;;;5.35;4.95;;;;;;;;;;5075267;28;20207;-62
2023/01/04 00:44:03;;;;;;;5.40;5.00;;;;;;;;;;5075282;28;20240;-62
2023/01/04 00:46:31;;;;;;;6.65;5.93;;;;;;;;;;5075484;28;20247;-62
2023/01/04 00:48:59;;;;;;;5.40;5.00;;;;;;;;;;5075328;28;20365;-62
2023/01/04 00:51:26;;;;;;;5.68;5.18;;;;;;;;;;5075202;28;20278;-62
2023/01/04 00:53:53;;;;;;;8.23;5.15;;;;;;;;;;5075118;28;20191;-62
2023/01/04 00:56:20;;;;;;;5.90;5.32;;;;;;;;;;5075509;28;20281;-62
2023/01/04 00:58:47;;;;;;;5.10;4.70;;;;;;;;;;5075201;28;20560;-62
2023/01/04 01:01:13;;;;;;;5.75;5.18;;;;;;;;;;5074924;28;20205;-62
2023/01/04 01:03:43;;;;;;;5.13;4.82;;;;;;;;;;5075020;28;20286;-62
2023/01/04 01:06:11;;;;;;;8.68;5.70;;;;;;;;;;5074902;28;20203;-62
2023/01/04 01:08:38;;;;;;;5.30;4.80;;;;;;;;;;5074800;28;20607;-62
2023/01/04 01:11:06;;;;;;;5.68;5.15;;;;;;;;;;5075206;28;20193;-62
2023/01/04 01:13:33;;;;;;;5.03;4.65;;;;;;;;;;5074891;28;20282;-62
2023/01/04 01:16:03;;;;;;;6.13;5.18;;;;;;;;;;5074769;28;20194;-62
2023/01/04 01:18:30;;;;;;;6.15;5.55;;;;;;;;;;5075077;28;20281;-62
2023/01/04 01:20:58;;;;;;;5.60;5.10;;;;;;;;;;5074577;28;20194;-62
2023/01/04 01:23:25;;;;;;;6.38;5.20;;;;;;;;;;5074822;28;20196;-62
2023/01/04 01:25:52;;;;;;;5.93;5.22;;;;;;;;;;5074596;28;20199;-62
2023/01/04 01:28:19;;;;;;;6.28;4.65;;;;;;;;;;5074536;28;20222;-62
2023/01/04 01:30:46;;;;;;;5.38;4.82;;;;;;;;;;5074533;28;20191;-62
2023/01/04 01:33:13;;;;;;;5.47;5.07;;;;;;;;;;5074358;28;20196;-62
2023/01/04 01:35:40;;;;;;;6.38;5.75;;;;;;;;;;5074304;28;20283;-62
2023/01/04 01:38:08;;;;;;;5.10;4.70;;;;;;;;;;5074413;28;20680;-62
2023/01/04 01:40:35;;;;;;;5.97;4.85;;;;;;;;;;5074312;28;20203;-62
2023/01/04 01:43:02;;;;;;;5.00;4.60;;;;;;;;;;5074218;28;20278;-62
2023/01/04 01:45:30;;;;;;;5.07;4.40;;;;;;;;;;5073610;28;20322;-62
2023/01/04 01:48:02;;;;;;;6.40;4.95;;;;;;;;;;5073919;28;20578;-62
2023/01/04 01:50:31;;;;;;;5.47;5.05;;;;;;;;;;5074488;28;20278;-62
2023/01/04 01:53:00;;;;;;;5.65;5.13;;;;;;;;;;5074226;28;20195;-62
2023/01/04 01:55:29;;;;;;;4.88;4.45;;;;;;;;;;5074276;28;20192;-62
2023/01/04 01:57:57;;;;;;;5.28;4.88;;;;;;;;;;5074000;28;20558;-62
2023/01/04 02:00:24;;;;;;;5.30;4.78;;;;;;;;;;5073786;28;20191;-62
2023/01/04 02:02:54;;;;;;;4.63;4.22;;;;;;;;;;5073773;28;20191;-62
2023/01/04 02:05:21;;;;;;;5.25;4.78;;;;;;;;;;5073895;28;20213;-62
2023/01/04 02:07:48;;;;;;;4.65;4.25;;;;;;;;;;5073768;28;20642;-62
2023/01/04 02:10:15;;;;;;;5.20;4.70;;;;;;;;;;5073714;28;20196;-62
2023/01/04 02:12:44;;;;;;;5.47;4.95;;;;;;;;;;5073616;28;20191;-62
2023/01/04 02:15:12;;;;;;;5.10;4.60;;;;;;;;;;5073499;28;20284;-62
2023/01/04 02:17:42;;;;;;;5.20;4.75;;;;;;;;;;5073691;28;20202;-62
2023/01/04 02:20:16;;;;;;;4.60;4.20;;;;;;;;;;5073672;28;20282;-62
2023/01/04 02:22:58;;;;;;;4.80;4.40;;;;;;;;;;5073558;28;20194;-62
2023/01/04 02:25:35;;;;;;;6.25;4.93;;;;;;;;;;5073405;28;20422;-62
2023/01/04 02:28:06;;;;;;;4.60;4.20;;;;;;;;;;5073461;28;20219;-62
2023/01/04 02:30:43;;;;;;;4.68;4.38;;;;;;;;;;5073433;28;20200;-62
2023/01/04 02:33:16;;;;;;;5.00;4.60;;;;;;;;;;5073372;28;20195;-62
2023/01/04 02:35:47;;;;;;;4.35;3.95;;;;;;;;;;5073212;28;20214;-62
2023/01/04 02:38:19;;;;;;;5.70;5.00;;;;;;;;;;5073124;28;20213;-62
2023/01/04 02:40:48;;;;;;;5.30;4.90;;;;;;;;;;5073210;28;20195;-62
2023/01/04 02:46:05;;;;;;;5.45;4.90;;;;;;;;;;5073024;28;20759;-62
2023/01/04 02:51:29;;;;;;;6.97;5.55;;;;;;;;;;5073164;28;20190;-62
2023/01/04 02:53:58;;;;;;;4.88;4.40;;;;;;;;;;5073123;28;20221;-62
2023/01/04 02:56:35;;;;;;;5.97;5.47;;;;;;;;;;5072314;28;20220;-62
2023/01/04 02:59:10;;;;;;;6.03;5.43;;;;;;;;;;5072930;28;20273;-62
2023/01/04 03:07:26;;;;;;;5.50;5.00;;;;;;;;;;5072776;28;21036;-62
2023/01/04 03:09:55;;;;;;;4.95;4.55;;;;;;;;;;5073009;28;20544;-62
2023/01/04 03:12:34;;;;;;;5.38;4.88;;;;;;;;;;5072875;28;20187;-62
2023/01/04 03:15:04;;;;;;;5.22;4.72;;;;;;;;;;5072836;28;20188;-62
2023/01/04 03:17:34;;;;;;;5.40;4.90;;;;;;;;;;5072668;28;20200;-62
2023/01/04 03:20:03;;;;;;;7.43;5.07;;;;;;;;;;5072859;28;20187;-62
2023/01/04 03:36:29;;;;;;;7.03;4.95;;;;;;;;;;5072582;28;20190;-62
2023/01/04 03:50:06;;;;;;;6.07;4.50;;;;;;;;;;5072474;28;20609;-62
2023/01/04 03:52:35;;;;;;;4.32;3.90;;;;;;;;;;5072552;28;20193;-62
2023/01/04 03:55:02;;;;;;;7.35;4.03;;;;;;;;;;5072276;28;20187;-62
2023/01/04 03:57:30;;;;;;;6.13;4.70;;;;;;;;;;5072564;28;20188;-62
2023/01/04 03:59:59;;;;;;;8.73;5.35;;;;;;;;;;5072526;28;20198;-62
2023/01/04 04:02:29;;;;;;;5.00;4.60;;;;;;;;;;5072362;28;20198;-62
2023/01/04 04:10:27;;;;;;;5.25;4.50;;;;;;;;;;5075975;28;20210;-62
2023/01/04 04:12:54;;;;;;;4.90;4.40;;;;;;;;;;5076006;28;20629;-62
2023/01/04 04:15:21;;;;;;;5.38;4.22;;;;;;;;;;5075861;28;20282;-62
2023/01/04 04:17:48;;;;;;;4.30;4.00;;;;;;;;;;5075783;28;20290;-62
2023/01/04 04:20:15;;;;;;;4.68;4.28;;;;;;;;;;5075712;28;20195;-62
2023/01/04 04:22:43;;;;;;;3.90;3.60;;;;;;;;;;5075827;28;20187;-62
2023/01/04 04:25:10;;;;;;;4.68;4.22;;;;;;;;;;5075832;28;20287;-62
2023/01/04 04:27:37;;;;;;;5.47;4.18;;;;;;;;;;5075556;28;20306;-62
2023/01/04 04:30:05;;;;;;;4.70;4.30;;;;;;;;;;5075651;28;20282;-62
2023/01/04 04:32:32;;;;;;;4.32;4.03;;;;;;;;;;5075459;28;20226;-62
2023/01/04 04:34:59;;;;;;;4.68;3.88;;;;;;;;;;5075584;28;20199;-62
2023/01/04 04:37:27;;;;;;;4.45;4.15;;;;;;;;;;5075542;28;20191;-62
2023/01/04 04:39:55;;;;;;;4.57;4.20;;;;;;;;;;5075432;28;20607;-62
2023/01/04 04:42:21;;;;;;;4.53;4.13;;;;;;;;;;5075355;28;20278;-62
2023/01/04 04:44:48;;;;;;;5.60;4.85;;;;;;;;;;5075139;28;20251;-62
2023/01/04 04:47:15;;;;;;;5.35;4.55;;;;;;;;;;5075131;28;20244;-62
2023/01/04 04:49:42;;;;;;;5.65;4.40;;;;;;;;;;5075457;28;20191;-63
2023/01/04 04:52:09;;;;;;;5.20;4.70;;;;;;;;;;5075209;28;20299;-62
2023/01/04 04:54:36;;;;;;;4.50;4.20;;;;;;;;;;5075163;28;20188;-62
2023/01/04 04:57:05;;;;;;;5.13;4.72;;;;;;;;;;5075117;28;20279;-62
2023/01/04 04:59:32;;;;;;;5.45;4.57;;;;;;;;;;5074979;28;20194;-62
2023/01/04 05:01:59;;;;;;;5.15;4.75;;;;;;;;;;5074895;28;20195;-62
2023/01/04 05:04:26;;;;;;;4.55;4.22;;;;;;;;;;5075024;28;20192;-62
2023/01/04 05:06:52;;;;;;;5.03;4.55;;;;;;;;;;5074933;28;20194;-62
2023/01/04 05:09:19;;;;;;;5.15;4.65;;;;;;;;;;5074804;28;20322;-62
2023/01/04 05:14:33;;;;;;;4.97;4.40;;;;;;;;;;5074750;28;20225;-62
2023/01/04 05:17:00;;;;;;;4.95;4.30;;;;;;;;;;5074872;28;20546;-62
2023/01/04 05:19:26;;;;;;;4.63;4.20;;;;;;;;;;5074047;28;20195;-62
2023/01/04 05:21:53;;;;;;;6.30;5.07;;;;;;;;;;5074611;28;20202;-62
2023/01/04 05:24:20;;;;;;;4.97;4.55;;;;;;;;;;5074446;28;20659;-62
2023/01/04 05:26:47;;;;;;;5.93;4.15;;;;;;;;;;5074390;28;20191;-62
2023/01/04 05:31:57;;;;;;;4.68;4.25;;;;;;;;;;5074063;28;20199;-62
2023/01/04 05:34:23;;;;;;;5.00;4.55;;;;;;;;;;5074164;28;20199;-62
2023/01/04 05:36:50;;;;;;;4.13;3.72;;;;;;;;;;5074058;28;20191;-62
2023/01/04 05:39:17;;;;;;;4.85;4.43;;;;;;;;;;5073818;28;20562;-62
2023/01/04 05:44:29;;;;;;;4.32;4.00;;;;;;;;;;5073661;28;20218;-62
2023/01/04 05:46:57;;;;;;;4.53;4.13;;;;;;;;;;5073839;28;20289;-62
2023/01/04 05:49:24;;;;;;;5.18;4.68;;;;;;;;;;5073620;28;20690;-62
2023/01/04 05:51:51;;;;;;;5.40;4.80;;;;;;;;;;5073507;28;20197;-62
2023/01/04 05:54:18;;;;;;;8.95;4.80;;;;;;;;;;5073822;28;20293;-62
2023/01/04 05:56:45;;;;;;;3.90;3.60;;;;;;;;;;5073778;28;20278;-62
2023/01/04 05:59:13;;;;;;;4.25;3.95;;;;;;;;;;5073665;28;20278;-62
2023/01/04 06:01:40;;;;;;;4.53;4.15;;;;;;;;;;5073507;28;20209;-62
2023/01/04 06:04:09;;;;;;;7.70;4.15;;;;;;;;;;5073336;28;20187;-62
2023/01/04 06:06:35;;;;;;;4.82;4.15;;;;;;;;;;5073688;28;20191;-63
2023/01/04 06:09:02;;;;;;;4.72;4.22;;;;;;;;;;5073488;28;20700;-62
2023/01/04 06:11:29;;;;;;;4.50;4.07;;;;;;;;;;5073401;28;20188;-62
2023/01/04 06:13:56;;;;;;;4.88;4.32;;;;;;;;;;5073392;28;20192;-62
2023/01/04 06:16:23;;;;;;;4.10;3.80;;;;;;;;;;5073299;28;20196;-62
2023/01/04 06:18:50;;;;;;;6.10;3.63;;;;;;;;;;5073101;28;20617;-62
2023/01/04 06:21:18;;;;;;;4.07;3.77;;;;;;;;;;5073312;28;20194;-63
2023/01/04 06:23:45;;;;;;;4.00;3.50;;;;;;;;;;5073287;28;20486;-62
2023/01/04 06:26:12;;;;;;;4.55;4.15;;;;;;;;;;5073137;28;20277;-62
2023/01/04 06:28:39;;;;;;;4.72;4.30;;;;;;;;;;5072965;28;20256;-62
2023/01/04 06:31:07;;;;;;;4.30;3.67;;;;;;;;;;5073079;28;20282;-62
2023/01/04 06:33:34;;;;;;;4.03;3.70;;;;;;;;;;5072896;28;20237;-62
2023/01/04 06:36:01;;;;;;;5.90;3.80;;;;;;;;;;5073137;28;20195;-62
2023/01/04 06:38:30;;;;;;;5.45;4.95;;;;;;;;;;5073105;28;20195;-62
2023/01/04 06:40:57;;;;;;;4.75;4.03;;;;;;;;;;5072873;28;20198;-62
2023/01/04 06:43:24;;;;;;;5.00;4.10;;;;;;;;;;5072815;28;20677;-62
2023/01/04 06:45:51;;;;;;;5.03;3.80;;;;;;;;;;5072536;28;20695;-62
2023/01/04 06:48:18;;;;;;;3.97;3.55;;;;;;;;;;5072893;28;20220;-62
2023/01/04 06:50:45;;;;;;;4.40;4.03;;;;;;;;;;5072739;28;20653;-62
2023/01/04 06:53:12;;;;;;;4.80;4.00;;;;;;;;;;5072769;28;20196;-62
2023/01/04 06:55:40;;;;;;;4.88;4.13;;;;;;;;;;5072674;28;20361;-62
2023/01/04 06:58:07;;;;;;;4.80;4.40;;;;;;;;;;5072616;28;20214;-62
2023/01/04 07:00:34;;;;;;;5.18;4.53;;;;;;;;;;5072337;28;20286;-62
2023/01/04 07:03:01;;;;;;;6.68;3.95;;;;;;;;;;5072388;28;20672;-62
2023/01/04 07:05:28;;;;;;;4.80;3.17;;;;;;;;;;5072720;28;20290;-62
2023/01/04 07:07:55;;;;;;;5.53;3.67;;;;;;;;;;5072459;28;20188;-62
2023/01/04 07:10:22;;;;;;;3.40;3.20;;;;;;;;;;5072620;28;20650;-62
2023/01/04 07:12:50;;;;;;;4.00;3.50;;;;;;;;;;5072386;28;20196;-62
2023/01/04 07:15:17;;;;;;;4.30;3.42;;;;;;;;;;5072288;28;20203;-62
2023/01/04 07:17:44;;;;;;;3.45;3.15;;;;;;;;;;5072347;28;20207;-62
2023/01/04 07:20:12;;;;;;;3.85;3.45;;;;;;;;;;5072194;28;20746;-62
2023/01/04 07:22:39;;;;;;;4.10;3.70;;;;;;;;;;5072286;28;20738;-62
2023/01/04 07:25:06;;;;;;;3.20;2.80;;;;;;;;;;5072295;28;20278;-62
2023/01/04 07:27:33;;;;;;;4.80;2.85;;;;;;;;;;5072276;28;20188;-62
2023/01/04 07:30:01;;;;;;;4.30;2.33;;;;;;;;;;5072413;28;20230;-62
2023/01/04 07:32:28;;;;;;;3.20;2.63;;;;;;;;;;5072443;28;20545;-62
2023/01/04 07:34:55;;;;;;;2.15;2.00;;;;;;;;;;5072361;28;20188;-62
2023/01/04 07:37:22;;;;;;;2.17;2.08;;;;;;;;;;5072296;28;20604;-62
2023/01/04 07:39:49;;;;;;;4.43;2.10;;;;;;;;;;5072159;28;20197;-62
2023/01/04 07:42:17;;;;;;;2.70;2.33;;;;;;;;;;5072039;28;20224;-62
2023/01/04 07:44:44;;;;;;;2.33;2.13;;;;;;;;;;5075697;28;20484;-62
2023/01/04 07:47:13;;;;;;;3.30;1.83;;;;;;;;;;5076245;28;20472;-62
2023/01/04 07:49:40;;;;;;;2.80;2.07;;;;;;;;;;5075957;28;20522;-62
2023/01/04 07:52:07;;;;;;;7.10;3.27;;;;;;;;;;5075872;28;20457;-62
2023/01/04 07:54:34;;;;;;;5.90;2.30;;;;;;;;;;5075698;28;20536;-62
2023/01/04 07:57:00;;;;;;;2.57;2.27;;;;;;;;;;5075796;28;20449;-62
2023/01/04 07:59:27;;;;;;;3.55;2.17;;;;;;;;;;5075884;28;20798;-62
2023/01/04 08:01:54;;;;;;;4.10;2.30;;;;;;;;;;5075878;28;20196;-62
2023/01/04 08:04:24;;;;;;;7.90;3.13;;;;;;;;;;5075757;28;20547;-62
2023/01/04 08:06:51;;;;;;;2.23;2.00;;;;;;;;;;5075663;28;20452;-62
2023/01/04 08:09:18;;;;;;;3.70;2.37;;;;;;;;;;5075791;28;20993;-62
2023/01/04 08:11:45;;;;;;;2.60;2.40;;;;;;;;;;5079347;28;20453;-62
2023/01/04 08:14:12;;;;;;;2.60;2.47;;;;;;;;;;5078146;28;20275;-62
2023/01/04 08:16:41;;;;;;;4.00;2.80;;;;;;;;;;5081101;28;20446;-62
2023/01/04 08:19:08;;;;;;;2.60;2.50;;;;;;;;;;5080653;28;20449;-62
2023/01/04 08:21:37;;;;;;;3.00;2.80;;;;;;;;;;5094201;28;20552;-63
2023/01/04 08:24:04;;;;;;;5.20;2.23;;;;;;;;;;5095426;28;20911;-63
2023/01/04 08:26:32;;;;;;;5.30;3.53;;;;;;;;;;5095590;28;20540;-63
2023/01/04 08:28:59;;;;;;;2.93;2.73;;;;;;;;;;5080740;28;20485;-63
2023/01/04 08:31:27;;;;;;;4.13;2.43;;;;;;;;;;5075048;28;21008;-63
2023/01/04 08:33:54;;;;;;;3.10;2.63;;;;;;;;;;5075042;28;20802;-62
2023/01/04 08:36:22;;;;;;;4.80;3.60;;;;;;;;;;5075084;28;20576;-68
2023/01/04 08:38:51;;;;;;;3.42;2.90;;;;;;;;;;5074333;28;20494;-61
2023/01/04 08:41:18;;;;;;;3.35;3.05;;;;;;;;;;5074482;28;20457;-63
2023/01/04 08:43:46;;;;;;;3.40;2.83;;;;;;;;;;5074985;28;20195;-65
2023/01/04 08:46:13;;;;;;;4.90;2.60;;;;;;;;;;5074954;28;20448;-64
2023/01/04 08:48:41;;;;;;;4.78;3.00;;;;;;;;;;5075123;28;20800;-64
2023/01/04 08:51:09;;;;;;;2.80;2.60;;;;;;;;;;5074652;28;20243;-61
2023/01/04 08:53:36;;;;;;;3.70;3.10;;;;;;;;;;5074877;28;20460;-67
2023/01/04 08:56:06;;;;;;;3.40;3.10;;;;;;;;;;5073505;28;20537;-64
2023/01/04 08:58:33;;;;;;;3.27;2.97;;;;;;;;;;5074759;28;20193;-65
2023/01/04 09:01:01;;;;;;;5.47;3.00;;;;;;;;;;5074680;28;20458;-62
2023/01/04 09:03:28;;;;;;;3.83;3.53;;;;;;;;;;5074623;28;20458;-60
2023/01/04 09:05:55;;;;;;;7.23;4.10;;;;;;;;;;5074781;28;20516;-62
2023/01/04 09:08:22;;;;;;;6.53;3.80;;;;;;;;;;5074637;28;20542;-62
2023/01/04 09:10:49;;;;;;;3.97;3.67;;;;;;;;;;5074443;28;20450;-64
2023/01/04 09:13:17;;;;;;;4.30;3.90;;;;;;;;;;5074469;28;20461;-64
2023/01/04 09:15:44;;;;;;;7.77;5.03;;;;;;;;;;5074339;28;20454;-64
2023/01/04 09:18:11;;;;;;;5.40;4.37;;;;;;;;;;5074100;28;20455;-61
2023/01/04 09:20:38;;;;;;;3.80;3.50;;;;;;;;;;5074487;28;20455;-62
2023/01/04 09:23:05;;;;;;;5.27;4.10;;;;;;;;;;5074301;28;20892;-62
2023/01/04 09:25:32;;;;;;;4.20;3.30;;;;;;;;;;5074079;28;20452;-63
2023/01/04 09:27:59;;;;;;;5.23;4.57;;;;;;;;;;5073930;28;20901;-62
2023/01/04 09:30:27;;;;;;;6.47;4.57;;;;;;;;;;5073788;28;20600;-63
2023/01/04 09:32:54;;;;;;;4.10;3.80;;;;;;;;;;5073868;28;20489;-62
2023/01/04 09:35:21;;;;;;;5.70;4.40;;;;;;;;;;5074153;28;20759;-62
2023/01/04 09:37:48;;;;;;;4.50;4.10;;;;;;;;;;5073854;28;20455;-62
2023/01/04 09:40:19;;;;;;;8.50;3.65;;;;;;;;;;5073625;28;20484;-62
2023/01/04 09:42:47;;;;;;;6.60;4.80;;;;;;;;;;5073673;28;20199;-62
2023/01/04 09:45:18;;;;;;;4.67;4.20;;;;;;;;;;5073356;28;20310;-62
2023/01/04 09:47:49;;;;;;;5.35;4.70;;;;;;;;;;5072983;28;20813;-62
2023/01/04 09:50:17;;;;;;;5.37;4.40;;;;;;;;;;5073808;28;20310;-62
2023/01/04 09:52:49;;;;;;;5.87;3.90;;;;;;;;;;5073724;28;20455;-60
2023/01/04 09:55:18;;;;;;;5.87;4.33;;;;;;;;;;5073610;28;20453;-60
2023/01/04 09:57:49;;;;;;;8.87;4.40;;;;;;;;;;5073439;28;20444;-62
2023/01/04 10:00:17;;;;;;;5.00;4.40;;;;;;;;;;5073666;28;20542;-62
2023/01/04 10:02:48;;;;;;;4.77;4.30;;;;;;;;;;5073487;28;20453;-61
2023/01/04 10:05:16;;;;;;;5.07;4.53;;;;;;;;;;5073485;28;20937;-62
2023/01/04 10:07:43;;;;;;;8.27;4.17;;;;;;;;;;5072936;28;20451;-62
2023/01/04 10:10:14;;;;;;;3.90;3.60;;;;;;;;;;5073096;28;21010;-63
2023/01/04 10:12:44;;;;;;;4.60;3.77;;;;;;;;;;5073512;28;20545;-56
2023/01/04 10:15:25;;;;;;;4.13;3.77;;;;;;;;;;5073345;28;20447;-63
2023/01/04 10:18:01;;;;;;;4.43;4.00;;;;;;;;;;5073195;28;20545;-61
2023/01/04 10:20:38;;;;;;;4.80;4.40;;;;;;;;;;5073133;28;20543;-61
2023/01/04 10:23:10;;;;;;;7.40;3.80;;;;;;;;;;5072994;28;20449;-61
2023/01/04 10:25:40;;;;;;;4.60;4.00;;;;;;;;;;5073296;28;20447;-61
2023/01/04 10:28:20;;;;;;;3.70;3.40;;;;;;;;;;5073565;28;20554;-60
2023/01/04 10:30:50;;;;;;;5.23;3.53;;;;;;;;;;5072762;28;20478;-61
2023/01/04 10:33:22;;;;;;;5.47;3.77;;;;;;;;;;5073105;28;20461;-59
2023/01/04 10:35:50;;;;;;;7.87;4.30;;;;;;;;;;5072969;28;20454;-60
2023/01/04 10:38:18;;;;;;;3.87;3.50;;;;;;;;;;5072891;28;20457;-59
2023/01/04 10:40:47;;;;;;;5.67;3.60;;;;;;;;;;5072975;28;20538;-55
2023/01/04 10:43:19;;;;;;;4.03;3.40;;;;;;;;;;5072767;28;20454;-60
2023/01/04 10:45:50;;;;;;;3.43;3.13;;;;;;;;;;5072749;28;20586;-58
2023/01/04 10:48:23;;;;;;;4.03;3.10;;;;;;;;;;5072785;28;20546;-59
2023/01/04 10:50:54;;;;;;;3.93;3.63;;;;;;;;;;5072737;28;20884;-59
2023/01/04 10:53:24;;;;;;;4.20;3.63;;;;;;;;;;5084023;28;20826;-67
2023/01/04 10:55:53;;;;;;;6.10;3.43;;;;;;;;;;5092908;28;20454;-57
2023/01/04 10:58:22;;;;;;;4.07;3.27;;;;;;;;;;5093031;28;20782;-56
2023/01/04 11:00:52;;;;;;;3.27;3.07;;;;;;;;;;5093050;28;20454;-57
2023/01/04 11:03:23;;;;;;;3.80;3.50;;;;;;;;;;5092981;28;20873;-56
2023/01/04 11:05:51;;;;;;;5.00;3.70;;;;;;;;;;5093098;28;20550;-69
2023/01/04 11:08:21;;;;;;;4.90;3.57;;;;;;;;;;5092803;28;20544;-61
2023/01/04 11:10:50;;;;;;;3.85;3.55;;;;;;;;;;5092918;28;20482;-61
2023/01/04 11:13:17;;;;;;;6.93;3.50;;;;;;;;;;5092980;28;20304;-61
2023/01/04 11:15:46;;;;;;;5.20;3.40;;;;;;;;;;5092098;28;20574;-62
2023/01/04 11:18:13;;;;;;;3.47;3.17;;;;;;;;;;5091752;28;20199;-61
2023/01/04 11:20:42;;;;;;;4.10;2.73;;;;;;;;;;5092556;28;20538;-61
2023/01/04 11:23:13;;;;;;;3.17;2.87;;;;;;;;;;5092393;28;20540;-62
2023/01/04 11:25:42;;;;;;;4.97;3.07;;;;;;;;;;5092604;28;20447;-57
2023/01/04 11:28:15;;;;;;;6.57;3.00;;;;;;;;;;5092162;28;20957;-59
2023/01/04 11:30:47;;;;;;;2.80;2.60;;;;;;;;;;5092640;28;20489;-59
2023/01/04 11:33:16;;;;;;;2.60;2.40;;;;;;;;;;5092590;28;20858;-61
2023/01/04 11:35:47;;;;;;;3.83;3.40;;;;;;;;;;5092600;28;20443;-60
2023/01/04 11:38:15;;;;;;;3.17;2.87;;;;;;;;;;5092320;28;20476;-60
2023/01/04 11:40:42;;;;;;;3.27;2.63;;;;;;;;;;5082734;28;20946;-60
2023/01/04 11:43:16;;;;;;;3.90;2.60;;;;;;;;;;5072296;28;20447;-65
2023/01/04 11:45:52;;;;;;;3.90;2.63;;;;;;;;;;5071946;28;20494;-62
2023/01/04 11:48:19;;;;;;;3.53;2.83;;;;;;;;;;5072200;28;20547;-71
2023/01/04 11:50:50;;;;;;;2.90;2.70;;;;;;;;;;5071765;28;20489;-62
2023/01/04 11:53:28;;;;;;;2.97;2.70;;;;;;;;;;5072120;28;20546;-60
2023/01/04 11:56:14;;;;;;;2.50;2.30;;;;;;;;;;5072078;28;20521;-60
2023/01/04 11:58:42;;;;;;;3.10;2.73;;;;;;;;;;5072169;28;20456;-60
2023/01/04 12:01:19;;;;;;;2.77;2.50;;;;;;;;;;5072075;28;20542;-60
2023/01/04 12:03:46;;;;;;;2.93;2.63;;;;;;;;;;5072004;28;20795;-59
2023/01/04 12:06:17;;;;;;;2.30;2.10;;;;;;;;;;5071879;28;20542;-61
2023/01/04 12:08:44;;;;;;;2.40;2.20;;;;;;;;;;5071793;28;20451;-60
2023/01/04 12:11:23;;;;;;;2.20;2.00;;;;;;;;;;5071766;28;20490;-61
2023/01/04 12:13:50;;;;;;;4.37;2.20;;;;;;;;;;5071806;28;20545;-60
2023/01/04 12:16:22;;;;;;;2.73;2.30;;;;;;;;;;5072031;28;20523;-66
2023/01/04 12:18:49;;;;;;;2.20;2.10;;;;;;;;;;5071735;28;21001;-66
2023/01/04 12:21:19;;;;;;;8.00;2.20;;;;;;;;;;5071699;28;20447;-67
2023/01/04 12:23:46;;;;;;;2.10;2.00;;;;;;;;;;5072080;28;20451;-61
2023/01/04 12:26:14;;;;;;;2.33;2.13;;;;;;;;;;5072140;28;20884;-66
2023/01/04 12:28:43;;;;;;;4.03;2.27;;;;;;;;;;5072219;28;20482;-66
2023/01/04 12:31:29;;;;;;;2.63;2.27;;;;;;;;;;5075383;28;20483;-63
2023/01/04 12:33:57;;;;;;;2.23;2.03;;;;;;;;;;5075288;28;21022;-59
2023/01/04 12:36:39;;;;;;;2.00;1.90;;;;;;;;;;5075447;28;20447;-59
2023/01/04 12:39:22;;;;;;;1.93;1.83;;;;;;;;;;5075166;28;20998;-60
2023/01/04 12:42:18;;;;;;;2.50;1.90;;;;;;;;;;5075335;28;20467;-59
2023/01/04 12:45:00;;;;;;;2.63;2.10;;;;;;;;;;5075171;28;20571;-59
2023/01/04 12:50:26;;;;;;;2.70;2.30;;;;;;;;;;5075045;28;20475;-62
2023/01/04 12:52:54;;;;;;;2.97;1.90;;;;;;;;;;5075318;28;20448;-61
2023/01/04 12:55:48;;;;;;;1.90;1.80;;;;;;;;;;5075115;28;20618;-60
2023/01/04 12:58:31;;;;;;;1.87;1.77;;;;;;;;;;5074865;28;20495;-63
2023/01/04 13:01:23;;;;;;;2.37;2.17;;;;;;;;;;5052735;28;20462;-56
2023/01/04 13:03:54;;;;;;;2.40;2.07;;;;;;;;;;5075078;28;20514;-60
2023/01/04 13:06:23;;;;;;;2.10;2.00;;;;;;;;;;5075230;28;20879;-57
2023/01/04 13:08:50;;;;;;;2.53;2.30;;;;;;;;;;5074753;28;20454;-59
2023/01/04 13:11:25;;;;;;;2.07;1.90;;;;;;;;;;5074587;28;20494;-61
2023/01/04 13:13:56;;;;;;;2.70;2.50;;;;;;;;;;5074634;28;20812;-60
2023/01/04 13:16:28;;;;;;;1.97;1.87;;;;;;;;;;5074808;28;20542;-58
2023/01/04 13:18:56;;;;;;;2.70;2.50;;;;;;;;;;5074182;28;20947;-63
2023/01/04 13:21:27;;;;;;;2.40;2.30;;;;;;;;;;5074632;28;20480;-63
2023/01/04 13:23:54;;;;;;;2.70;2.50;;;;;;;;;;5074275;28;20544;-56
2023/01/04 13:26:34;;;;;;;3.00;2.10;;;;;;;;;;5074432;28;20459;-60
2023/01/04 13:29:08;;;;;;;2.40;2.30;;;;;;;;;;5073788;28;20543;-59
2023/01/04 13:31:41;;;;;;;2.90;2.40;;;;;;;;;;5073965;28;20489;-61
2023/01/04 13:34:13;;;;;;;3.83;2.47;;;;;;;;;;5074082;28;20543;-62
2023/01/04 13:36:40;;;;;;;2.43;2.20;;;;;;;;;;5074227;28;20541;-60
2023/01/04 13:39:07;;;;;;;2.23;2.13;;;;;;;;;;5074296;28;20450;-61
2023/01/04 13:41:35;;;;;;;2.57;2.37;;;;;;;;;;5073566;28;20448;-61
2023/01/04 13:44:07;;;;;;;2.20;2.10;;;;;;;;;;5073842;28;20541;-59
2023/01/04 13:46:34;;;;;;;4.33;1.93;;;;;;;;;;5074093;28;20451;-59
2023/01/04 13:49:03;;;;;;;6.43;2.40;;;;;;;;;;5074300;28;20473;-63
2023/01/04 13:51:33;;;;;;;2.70;2.50;;;;;;;;;;5074069;28;20490;-62
2023/01/04 13:54:01;;;;;;;3.17;2.00;;;;;;;;;;5073819;28;20452;-60
2023/01/04 13:56:31;;;;;;;2.60;2.40;;;;;;;;;;5073666;28;20529;-60
2023/01/04 13:58:58;;;;;;;3.00;2.50;;;;;;;;;;5073592;28;20455;-60
2023/01/04 14:01:27;;;;;;;3.93;3.67;;;;;;;;;;5073314;28;20543;-60
2023/01/04 14:03:55;;;;;;;2.50;2.30;;;;;;;;;;5073814;28;20462;-60
2023/01/04 14:06:25;;;;;;;2.10;2.00;;;;;;;;;;5073774;28;20470;-60
2023/01/04 14:08:54;;;;;;;2.50;2.30;;;;;;;;;;5073774;28;20447;-60
2023/01/04 14:14:17;;;;;;;4.37;2.80;;;;;;;;;;5073530;28;20466;-60
2023/01/04 14:16:44;;;;;;;3.93;2.37;;;;;;;;;;5073703;28;20486;-60
2023/01/04 14:19:29;;;;;;;2.23;2.13;;;;;;;;;;5073517;28;20539;-60
2023/01/04 14:21:57;;;;;;;3.10;2.83;;;;;;;;;;5073264;28;20455;-60
2023/01/04 14:24:35;;;;;;;3.33;3.03;;;;;;;;;;5073208;28;20447;-60
2023/01/04 14:27:22;;;;;;;2.80;2.07;;;;;;;;;;5073442;28;20450;-60
2023/01/04 14:29:49;;;;;;;2.20;2.10;;;;;;;;;;5072931;28;20947;-60
2023/01/04 14:32:16;;;;;;;2.97;2.77;;;;;;;;;;5073132;28;20483;-60
2023/01/04 14:34:42;;;;;;;2.37;2.10;;;;;;;;;;5073075;28;20448;-60
2023/01/04 14:37:11;;;;;;;2.60;2.40;;;;;;;;;;5073235;28;20541;-60
2023/01/04 14:39:38;;;;;;;3.00;2.80;;;;;;;;;;5073289;28;20822;-60
2023/01/04 14:42:05;;;;;;;2.70;2.50;;;;;;;;;;5073181;28;20549;-60
2023/01/04 14:44:34;;;;;;;3.20;3.00;;;;;;;;;;5072853;28;20474;-60
2023/01/04 14:47:04;;;;;;;3.10;2.40;;;;;;;;;;5072987;28;20862;-61
2023/01/04 14:49:32;;;;;;;2.97;2.77;;;;;;;;;;5073286;28;20444;-60
2023/01/04 14:51:59;;;;;;;2.67;2.47;;;;;;;;;;5072600;28;20490;-61
2023/01/04 14:54:28;;;;;;;2.63;2.43;;;;;;;;;;5072408;28;20455;-60
2023/01/04 14:56:56;;;;;;;2.60;2.40;;;;;;;;;;5072810;28;20451;-60
2023/01/04 14:59:23;;;;;;;3.10;2.80;;;;;;;;;;5072749;28;20940;-60
2023/01/04 15:01:50;;;;;;;4.17;2.63;;;;;;;;;;5072700;28;20459;-60
2023/01/04 15:04:17;;;;;;;3.63;3.10;;;;;;;;;;5072883;28;20452;-61
2023/01/04 15:06:49;;;;;;;2.37;2.20;;;;;;;;;;5072906;28;20451;-60
2023/01/04 15:09:16;;;;;;;2.73;2.53;;;;;;;;;;5072742;28;20452;-61
2023/01/04 15:11:44;;;;;;;2.77;2.47;;;;;;;;;;5072605;28;20537;-60
2023/01/04 15:14:11;;;;;;;2.60;2.50;;;;;;;;;;5072704;28;20815;-61
2023/01/04 15:16:38;;;;;;;2.60;2.40;;;;;;;;;;5072562;28;20451;-61
2023/01/04 15:19:05;;;;;;;2.90;2.70;;;;;;;;;;5072784;28;20538;-61
2023/01/04 15:21:32;;;;;;;3.10;2.40;;;;;;;;;;5072725;28;20807;-60
2023/01/04 15:23:59;;;;;;;2.53;2.43;;;;;;;;;;5072556;28;20454;-60
2023/01/04 15:26:26;;;;;;;2.20;2.10;;;;;;;;;;5072569;28;20539;-60
2023/01/04 15:28:54;;;;;;;2.40;2.27;;;;;;;;;;5072516;28;20484;-61
2023/01/04 15:31:21;;;;;;;2.70;2.50;;;;;;;;;;5072783;28;20493;-61
2023/01/04 15:33:48;;;;;;;2.70;2.50;;;;;;;;;;5072718;28;20452;-61
2023/01/04 15:36:17;;;;;;;2.73;2.07;;;;;;;;;;5072511;28;20950;-60
2023/01/04 15:38:44;;;;;;;2.50;2.30;;;;;;;;;;5072524;28;20501;-61
2023/01/04 15:42:57;;;;;;;2.60;2.40;;;;;;;;;;5072462;28;20450;-61
2023/01/04 15:44:01;;;;;;;2.17;2.07;;;;;;;;;;5072178;28;20498;-60
2023/01/04 15:46:28;;;;;;;4.53;3.33;;;;;;;;;;5072361;28;20469;-61
2023/01/04 15:48:55;;;;;;;2.60;2.40;;;;;;;;;;5072367;28;20493;-61
2023/01/04 15:51:22;;;;;;;2.00;1.90;;;;;;;;;;5072353;28;20490;-61